createdAt,value
2022-12-23T00:01:28.094Z,6.25
2022-12-23T00:04:02.431Z,6.40
2022-12-23T00:06:35.626Z,5.68
2022-12-23T00:09:08.449Z,6.35
2022-12-23T00:12:01.602Z,5.97
2022-12-23T00:14:51.857Z,7.00
2022-12-23T00:17:24.818Z,5.47
2022-12-23T00:19:58.975Z,7.00
2022-12-23T00:22:46.464Z,7.17
2022-12-23T00:25:19.645Z,7.00
2022-12-23T00:28:01.275Z,7.32
2022-12-23T00:30:34.198Z,7.43
2022-12-23T00:33:06.988Z,5.13
2022-12-23T00:35:41.289Z,4.53
2022-12-23T00:38:14.711Z,7.07
2022-12-23T00:41:09.550Z,6.95
2022-12-23T00:43:42.431Z,5.80
2022-12-23T00:46:15.360Z,5.03
2022-12-23T00:49:05.624Z,5.70
2022-12-23T00:51:39.872Z,7.30
2022-12-23T00:54:12.935Z,7.93
2022-12-23T00:56:46.111Z,5.93
2022-12-23T00:59:19.260Z,6.07
2022-12-23T01:02:10.211Z,7.18
2022-12-23T01:05:00.640Z,7.60
2022-12-23T01:07:34.797Z,6.50
2022-12-23T01:10:08.552Z,7.97
2022-12-23T01:12:41.329Z,6.65
2022-12-23T01:15:14.354Z,6.10
2022-12-23T01:17:47.166Z,6.70
2022-12-23T01:20:20.283Z,7.15
2022-12-23T01:22:54.481Z,8.13
2022-12-23T01:25:27.267Z,6.93
2022-12-23T01:28:00.124Z,8.35
2022-12-23T01:30:33.241Z,7.10
2022-12-23T01:33:06.208Z,8.18
2022-12-23T01:35:39.115Z,5.65
2022-12-23T01:38:13.310Z,9.63
2022-12-23T01:40:46.801Z,7.20
2022-12-23T01:43:19.961Z,6.57
2022-12-23T01:45:52.819Z,9.25
2022-12-23T01:48:28.225Z,6.53
2022-12-23T01:51:04.471Z,8.40
2022-12-23T01:53:42.452Z,8.07
2022-12-23T01:56:18.241Z,7.45
2022-12-23T01:58:54.769Z,8.52
2022-12-23T02:01:46.164Z,6.25
2022-12-23T02:04:22.916Z,9.95
2022-12-23T02:07:13.065Z,8.00
2022-12-23T02:09:48.210Z,7.35
2022-12-23T02:12:37.726Z,4.93
2022-12-23T02:15:41.891Z,8.90
2022-12-23T02:18:33.705Z,8.32
2022-12-23T02:21:33.269Z,9.77
2022-12-23T02:24:35.547Z,9.00
2022-12-23T02:27:19.949Z,9.70
2022-12-23T02:30:33.164Z,8.97
2022-12-23T02:33:18.392Z,9.68
2022-12-23T02:35:59.614Z,7.18
2022-12-23T02:38:41.400Z,8.50
2022-12-23T02:41:21.033Z,9.40
2022-12-23T02:44:00.817Z,8.68
2022-12-23T02:46:39.393Z,8.68
2022-12-23T02:49:16.528Z,7.97
2022-12-23T02:51:54.614Z,7.32
2022-12-23T02:54:31.452Z,6.90
2022-12-23T02:57:07.630Z,7.50
2022-12-23T02:59:44.809Z,3.58
2022-12-23T03:02:19.478Z,8.50
2022-12-23T03:04:52.648Z,7.55
2022-12-23T03:07:31.636Z,9.27
2022-12-23T03:10:14.719Z,7.80
2022-12-23T03:12:54.006Z,8.77
2022-12-23T03:15:38.612Z,10.27
2022-12-23T03:18:22.079Z,10.65
2022-12-23T03:21:01.281Z,11.45
2022-12-23T03:23:40.983Z,11.07
2022-12-23T03:26:19.853Z,11.30
2022-12-23T03:28:56.796Z,9.00
2022-12-23T03:31:32.690Z,12.05
2022-12-23T03:34:11.450Z,12.93
2022-12-23T03:36:50.087Z,12.13
2022-12-23T03:39:28.362Z,12.52
2022-12-23T03:42:06.654Z,9.45
2022-12-23T03:45:03.531Z,7.38
2022-12-23T03:47:44.522Z,10.48
2022-12-23T03:50:21.285Z,10.77
2022-12-23T03:52:58.024Z,10.68
2022-12-23T03:55:34.321Z,10.50
2022-12-23T03:58:12.989Z,9.30
2022-12-23T04:00:59.318Z,10.95
2022-12-23T04:03:37.398Z,10.98
2022-12-23T04:06:16.174Z,11.30
2022-12-23T04:08:50.330Z,9.48
2022-12-23T04:11:23.410Z,10.32
2022-12-23T04:13:56.495Z,11.25
2022-12-23T04:16:30.446Z,10.82
2022-12-23T04:19:03.348Z,9.43
2022-12-23T04:21:37.762Z,9.82
2022-12-23T04:24:11.021Z,9.75
2022-12-23T04:26:43.833Z,8.52
2022-12-23T04:29:16.765Z,7.43
2022-12-23T04:31:51.791Z,7.20
2022-12-23T04:34:24.782Z,6.07
2022-12-23T04:36:58.963Z,6.28
2022-12-23T04:39:33.863Z,7.35
2022-12-23T04:44:39.803Z,5.88
2022-12-23T04:47:13.996Z,5.57
2022-12-23T04:49:46.869Z,4.53
2022-12-23T04:52:21.630Z,5.97
2022-12-23T04:54:54.552Z,5.57
2022-12-23T04:57:27.407Z,5.30
2022-12-23T05:00:00.239Z,5.32
2022-12-23T05:02:33.108Z,5.43
2022-12-23T05:05:07.003Z,5.38
2022-12-23T05:07:41.217Z,5.05
2022-12-23T05:10:14.089Z,4.80
2022-12-23T05:12:46.934Z,6.40
2022-12-23T05:15:19.738Z,4.82
2022-12-23T05:17:52.544Z,5.07
2022-12-23T05:20:25.356Z,5.50
2022-12-23T05:22:59.577Z,4.80
2022-12-23T05:25:33.803Z,4.78
2022-12-23T05:28:07.885Z,4.28
2022-12-23T05:30:40.739Z,3.47
2022-12-23T05:33:13.781Z,3.60
2022-12-23T05:35:46.954Z,4.55
2022-12-23T05:38:21.185Z,4.00
2022-12-23T05:40:54.622Z,4.60
2022-12-23T05:43:27.457Z,4.68
2022-12-23T05:46:00.444Z,4.43
2022-12-23T05:48:33.339Z,5.72
2022-12-23T05:51:06.521Z,7.03
2022-12-23T05:53:40.718Z,7.35
2022-12-23T05:56:13.698Z,9.20
2022-12-23T05:58:46.498Z,8.30
2022-12-23T06:01:20.491Z,8.13
2022-12-23T06:03:53.358Z,8.95
2022-12-23T06:06:26.268Z,9.80
2022-12-23T06:09:00.868Z,9.90
2022-12-23T06:11:33.664Z,11.70
2022-12-23T06:14:07.175Z,9.80
2022-12-23T06:16:40.045Z,10.25
2022-12-23T06:19:12.944Z,11.35
2022-12-23T06:21:45.932Z,10.02
2022-12-23T06:24:20.422Z,9.55
2022-12-23T06:26:56.953Z,11.77
2022-12-23T06:29:30.409Z,10.90
2022-12-23T06:32:03.398Z,10.20
2022-12-23T06:34:36.491Z,10.15
2022-12-23T06:37:09.285Z,9.85
2022-12-23T06:39:43.476Z,7.95
2022-12-23T06:42:16.303Z,8.93
2022-12-23T06:44:49.114Z,8.52
2022-12-23T06:47:21.935Z,8.32
2022-12-23T06:49:56.023Z,9.57
2022-12-23T06:52:28.888Z,13.97
2022-12-23T06:55:03.174Z,11.30
2022-12-23T06:57:36.054Z,10.43
2022-12-23T07:00:10.585Z,11.50
2022-12-23T07:02:43.774Z,10.57
2022-12-23T07:05:17.263Z,10.40
2022-12-23T07:07:50.048Z,11.77
2022-12-23T07:10:24.258Z,10.90
2022-12-23T07:12:57.129Z,10.07
2022-12-23T07:15:30.235Z,11.05
2022-12-23T07:18:03.163Z,11.00
2022-12-23T07:20:35.974Z,12.13
2022-12-23T07:23:08.764Z,11.02
2022-12-23T07:25:43.004Z,11.07
2022-12-23T07:28:15.859Z,12.00
2022-12-23T07:30:48.742Z,11.30
2022-12-23T07:33:21.632Z,12.13
2022-12-23T07:35:59.104Z,12.00
2022-12-23T07:38:32.009Z,11.13
2022-12-23T07:41:06.425Z,12.02
2022-12-23T07:43:39.217Z,11.98
2022-12-23T07:46:12.120Z,13.77
2022-12-23T07:48:45.146Z,14.52
2022-12-23T07:51:18.267Z,11.27
2022-12-23T07:53:51.568Z,12.00
2022-12-23T07:56:25.825Z,11.43
2022-12-23T07:58:58.723Z,10.68
2022-12-23T08:01:31.629Z,10.57
2022-12-23T08:04:04.940Z,11.35
2022-12-23T08:06:37.784Z,11.65
2022-12-23T08:09:10.690Z,10.55
2022-12-23T08:11:45.778Z,11.23
2022-12-23T08:14:18.617Z,11.35
2022-12-23T08:16:51.456Z,13.40
2022-12-23T08:19:24.293Z,13.02
2022-12-23T08:21:57.095Z,11.77
2022-12-23T08:24:30.190Z,11.35
2022-12-23T08:27:04.489Z,10.70
2022-12-23T08:29:37.746Z,12.52
2022-12-23T08:32:10.619Z,12.10
2022-12-23T08:34:43.448Z,10.27
2022-12-23T08:37:16.642Z,10.35
2022-12-23T08:39:49.557Z,9.82
2022-12-23T08:42:23.762Z,9.10
2022-12-23T08:44:56.606Z,9.55
2022-12-23T08:47:29.385Z,8.43
2022-12-23T08:50:02.155Z,8.20
2022-12-23T08:52:36.147Z,9.30
2022-12-23T08:55:09.754Z,9.10
2022-12-23T08:57:43.885Z,7.38
2022-12-23T09:00:16.953Z,8.20
2022-12-23T09:02:49.851Z,7.65
2022-12-23T09:05:22.665Z,8.70
2022-12-23T09:07:55.516Z,9.80
2022-12-23T09:10:28.285Z,8.23
2022-12-23T09:13:02.565Z,7.03
2022-12-23T09:15:38.625Z,8.32
2022-12-23T09:18:11.739Z,8.43
2022-12-23T09:20:44.547Z,8.65
2022-12-23T09:23:17.276Z,8.15
2022-12-23T09:25:50.029Z,7.10
2022-12-23T09:28:25.505Z,7.68
2022-12-23T09:30:58.308Z,7.75
2022-12-23T09:33:31.341Z,9.93
2022-12-23T09:36:05.481Z,10.00
2022-12-23T09:38:39.093Z,10.40
2022-12-23T09:41:27.223Z,11.20
2022-12-23T09:44:16.904Z,6.95
2022-12-23T09:46:53.525Z,10.18
2022-12-23T09:49:26.520Z,11.32
2022-12-23T09:52:09.977Z,10.68
2022-12-23T09:54:49.247Z,10.63
2022-12-23T09:57:27.411Z,12.10
2022-12-23T10:00:08.714Z,11.07
2022-12-23T10:02:58.159Z,10.52
2022-12-23T10:05:40.482Z,10.20
2022-12-23T10:08:18.534Z,9.55
2022-12-23T10:10:54.985Z,9.02
2022-12-23T10:13:30.941Z,9.90
2022-12-23T10:16:07.941Z,8.40
2022-12-23T10:18:53.040Z,8.85
2022-12-23T10:21:33.161Z,9.73
2022-12-23T10:24:11.791Z,9.20
2022-12-23T10:26:52.302Z,8.45
2022-12-23T10:29:27.543Z,7.45
2022-12-23T10:32:12.546Z,8.07
2022-12-23T10:34:52.549Z,10.38
2022-12-23T10:37:34.859Z,7.47
2022-12-23T10:40:15.742Z,9.25
2022-12-23T10:43:03.950Z,10.73
2022-12-23T10:45:48.842Z,10.30
2022-12-23T10:48:36.957Z,11.52
2022-12-23T10:51:18.546Z,9.77
2022-12-23T10:53:56.016Z,11.02
2022-12-23T10:56:30.608Z,10.43
2022-12-23T10:59:08.197Z,11.25
2022-12-23T11:01:42.925Z,13.65
2022-12-23T11:04:21.106Z,11.95
2022-12-23T11:07:18.225Z,16.02
2022-12-23T11:09:51.100Z,11.85
2022-12-23T11:12:25.468Z,13.77
2022-12-23T11:14:59.084Z,17.30
2022-12-23T11:17:34.338Z,18.30
2022-12-23T11:20:14.382Z,17.58
2022-12-23T11:22:53.104Z,21.40
2022-12-23T11:25:37.740Z,20.27
2022-12-23T11:28:16.416Z,23.50
2022-12-23T11:30:56.686Z,16.80
2022-12-23T11:33:51.778Z,25.27
2022-12-23T11:36:28.088Z,21.17
2022-12-23T11:39:06.654Z,18.70
2022-12-23T11:41:43.025Z,24.15
2022-12-23T11:44:22.556Z,23.50
2022-12-23T11:46:56.061Z,23.25
2022-12-23T11:49:31.517Z,18.90
2022-12-23T11:52:12.938Z,19.20
2022-12-23T11:54:54.562Z,17.60
2022-12-23T11:57:38.615Z,17.98
2022-12-23T12:00:21.494Z,18.35
2022-12-23T12:02:57.657Z,18.20
2022-12-23T12:05:36.154Z,15.32
2022-12-23T12:08:14.978Z,18.63
2022-12-23T12:10:47.963Z,15.63
2022-12-23T12:13:26.923Z,14.38
2022-12-23T12:16:14.825Z,17.65
2022-12-23T12:18:55.261Z,16.55
2022-12-23T12:21:34.045Z,18.52
2022-12-23T12:24:18.868Z,17.05
2022-12-23T12:26:55.466Z,16.92
2022-12-23T12:29:34.636Z,17.75
2022-12-23T12:32:17.759Z,16.05
2022-12-23T12:34:55.729Z,18.60
2022-12-23T12:37:39.038Z,16.10
2022-12-23T12:40:24.851Z,15.82
2022-12-23T12:43:02.813Z,14.45
2022-12-23T12:45:43.018Z,14.70
2022-12-23T12:48:33.192Z,14.60
2022-12-23T12:51:15.380Z,14.80
2022-12-23T12:54:05.135Z,15.13
2022-12-23T12:56:45.135Z,15.20
2022-12-23T12:59:19.654Z,16.27
2022-12-23T13:02:03.744Z,17.80
2022-12-23T13:05:03.340Z,18.17
2022-12-23T13:07:46.974Z,15.43
2022-12-23T13:10:42.684Z,14.45
2022-12-23T13:16:05.032Z,12.80
2022-12-23T13:18:47.500Z,11.98
2022-12-23T13:21:25.489Z,12.98
2022-12-23T13:24:05.626Z,12.02
2022-12-23T13:26:41.234Z,12.88
2022-12-23T13:29:41.023Z,15.40
2022-12-23T13:32:26.463Z,13.38
2022-12-23T13:37:43.945Z,14.02
2022-12-23T13:40:32.374Z,14.40
2022-12-23T13:43:10.212Z,12.57
2022-12-23T13:45:46.767Z,13.95
2022-12-23T13:48:31.763Z,13.63
2022-12-23T13:51:11.316Z,13.60
2022-12-23T13:54:04.092Z,13.27
2022-12-23T13:56:43.174Z,13.73
2022-12-23T13:59:19.766Z,21.73
2022-12-23T14:01:54.388Z,18.17
2022-12-23T14:04:33.226Z,14.70
2022-12-23T14:07:19.143Z,11.98
2022-12-23T14:09:54.410Z,12.30
2022-12-23T14:12:29.623Z,13.25
2022-12-23T14:15:30.814Z,12.18
2022-12-23T14:18:18.948Z,13.35
2022-12-23T14:20:57.722Z,13.43
2022-12-23T14:23:41.999Z,12.25
2022-12-23T14:26:31.271Z,11.63
2022-12-23T14:29:24.062Z,13.38
2022-12-23T14:31:58.204Z,12.70
2022-12-23T14:34:33.898Z,11.77
2022-12-23T14:37:35.646Z,12.00
2022-12-23T14:40:47.020Z,12.50
2022-12-23T14:43:31.863Z,11.55
2022-12-23T14:46:06.780Z,10.48
2022-12-23T14:51:52.124Z,18.42
2022-12-23T14:54:39.221Z,12.93
2022-12-23T14:57:20.088Z,10.70
2022-12-23T15:00:00.452Z,10.00
2022-12-23T15:02:37.223Z,10.88
2022-12-23T15:05:10.820Z,11.82
2022-12-23T15:07:47.804Z,10.40
2022-12-23T15:10:23.831Z,11.25
2022-12-23T15:13:01.630Z,12.25
2022-12-23T15:15:34.441Z,11.43
2022-12-23T15:18:11.980Z,11.40
2022-12-23T15:20:44.824Z,11.82
2022-12-23T15:23:19.010Z,12.00
2022-12-23T15:25:52.275Z,11.27
2022-12-23T15:28:37.214Z,10.35
2022-12-23T15:31:24.084Z,11.63
2022-12-23T15:34:03.529Z,17.80
2022-12-23T15:36:37.653Z,12.35
2022-12-23T15:39:20.182Z,14.00
2022-12-23T15:41:53.014Z,12.48
2022-12-23T15:44:35.061Z,12.75
2022-12-23T15:47:24.556Z,12.48
2022-12-23T15:49:58.934Z,11.48
2022-12-23T15:52:33.641Z,11.27
2022-12-23T15:55:14.883Z,11.80
2022-12-23T15:57:51.018Z,9.95
2022-12-23T16:00:27.376Z,10.23
2022-12-23T16:03:02.460Z,10.80
2022-12-23T16:05:39.004Z,10.18
2022-12-23T16:08:28.510Z,10.85
2022-12-23T16:11:14.302Z,12.13
2022-12-23T16:13:59.216Z,8.50
2022-12-23T16:16:35.188Z,8.05
2022-12-23T16:19:38.279Z,8.30
2022-12-23T16:22:25.261Z,8.15
2022-12-23T16:25:36.469Z,8.50
2022-12-23T16:28:17.730Z,9.05
2022-12-23T16:30:53.482Z,8.98
2022-12-23T16:33:36.313Z,11.23
2022-12-23T16:36:17.257Z,12.60
2022-12-23T16:38:52.600Z,11.20
2022-12-23T16:44:00.259Z,9.60
2022-12-23T16:46:34.946Z,9.38
2022-12-23T16:49:10.934Z,12.85
2022-12-23T16:51:43.913Z,12.75
2022-12-23T16:54:18.849Z,18.20
2022-12-23T16:59:25.957Z,11.60
2022-12-23T17:02:03.521Z,11.65
2022-12-23T17:04:36.787Z,11.10
2022-12-23T17:07:12.481Z,11.15
2022-12-23T17:09:45.483Z,13.65
2022-12-23T17:12:18.462Z,13.35
2022-12-23T17:14:52.602Z,13.10
2022-12-23T17:17:26.232Z,15.03
2022-12-23T17:19:59.038Z,15.68
2022-12-23T17:22:34.822Z,15.25
2022-12-23T17:25:08.561Z,16.05
2022-12-23T17:27:41.793Z,16.48
2022-12-23T17:30:17.502Z,16.92
2022-12-23T17:32:53.240Z,16.75
2022-12-23T17:35:26.994Z,18.17
2022-12-23T17:37:59.773Z,16.17
2022-12-23T17:40:33.085Z,18.42
2022-12-23T17:43:06.098Z,16.52
2022-12-23T17:45:40.315Z,18.40
2022-12-23T17:48:18.189Z,18.33
2022-12-23T17:50:54.269Z,19.05
2022-12-23T17:53:27.135Z,15.77
2022-12-23T17:56:00.938Z,12.38
2022-12-23T17:58:33.710Z,14.80
2022-12-23T18:01:08.402Z,12.25
2022-12-23T18:03:41.278Z,10.10
2022-12-23T18:06:15.598Z,14.55
2022-12-23T18:08:48.915Z,13.68
2022-12-23T18:11:24.339Z,14.15
2022-12-23T18:13:57.253Z,10.27
2022-12-23T18:16:31.827Z,16.45
2022-12-23T18:19:04.638Z,12.00
2022-12-23T18:21:37.461Z,14.15
2022-12-23T18:24:11.553Z,17.30
2022-12-23T18:26:44.740Z,11.07
2022-12-23T18:29:18.199Z,10.80
2022-12-23T18:31:52.977Z,9.13
2022-12-23T18:34:25.735Z,12.60
2022-12-23T18:36:58.510Z,11.00
2022-12-23T18:39:31.287Z,11.18
2022-12-23T18:42:04.260Z,12.93
2022-12-23T18:44:37.140Z,12.52
2022-12-23T18:47:12.400Z,10.38
2022-12-23T18:49:45.233Z,9.27
2022-12-23T18:52:18.294Z,8.02
2022-12-23T18:54:53.298Z,8.48
2022-12-23T18:57:26.027Z,10.38
2022-12-23T18:59:59.826Z,6.65
2022-12-23T19:02:34.017Z,8.88
2022-12-23T19:05:08.212Z,6.78
2022-12-23T19:07:41.014Z,7.47
2022-12-23T19:10:19.675Z,8.43
2022-12-23T19:12:53.135Z,7.30
2022-12-23T19:15:26.623Z,6.65
2022-12-23T19:18:00.735Z,8.48
2022-12-23T19:20:33.603Z,8.18
2022-12-23T19:23:06.481Z,11.38
2022-12-23T19:25:41.396Z,9.63
2022-12-23T19:30:46.889Z,13.15
2022-12-23T19:33:21.457Z,13.18
2022-12-23T19:35:54.257Z,13.25
2022-12-23T19:38:27.109Z,10.55
2022-12-23T19:40:59.857Z,12.57
2022-12-23T19:43:32.636Z,7.85
2022-12-23T19:46:10.881Z,14.40
2022-12-23T19:48:50.182Z,11.52
2022-12-23T19:51:22.961Z,7.30
2022-12-23T19:53:56.072Z,11.60
2022-12-23T19:56:30.297Z,6.95
2022-12-23T19:59:03.800Z,8.35
2022-12-23T20:01:36.676Z,10.60
2022-12-23T20:04:12.342Z,9.77
2022-12-23T20:06:45.192Z,9.02
2022-12-23T20:09:18.671Z,11.27
2022-12-23T20:11:51.486Z,8.50
2022-12-23T20:14:27.707Z,6.88
2022-12-23T20:17:03.407Z,8.32
2022-12-23T20:19:45.471Z,5.82
2022-12-23T20:22:18.705Z,5.55
2022-12-23T20:24:51.474Z,6.45
2022-12-23T20:27:27.852Z,6.28
2022-12-23T20:30:01.091Z,7.10
2022-12-23T20:32:33.891Z,5.50
2022-12-23T20:35:08.771Z,5.20
2022-12-23T20:40:17.354Z,7.22
2022-12-23T20:42:50.125Z,5.38
2022-12-23T20:45:22.876Z,5.65
2022-12-23T20:47:55.959Z,6.50
2022-12-23T20:50:30.054Z,5.30
2022-12-23T20:53:02.889Z,7.78
2022-12-23T20:55:35.724Z,6.93
2022-12-23T20:58:22.445Z,7.90
2022-12-23T21:00:55.275Z,7.68
2022-12-23T21:03:28.151Z,7.13
2022-12-23T21:06:02.297Z,8.13
2022-12-23T21:08:35.570Z,9.07
2022-12-23T21:11:08.501Z,8.35
2022-12-23T21:13:41.509Z,7.47
2022-12-23T21:16:14.862Z,6.70
2022-12-23T21:18:52.480Z,7.13
2022-12-23T21:21:28.170Z,5.88
2022-12-23T21:24:04.082Z,6.15
2022-12-23T21:26:37.369Z,6.68
2022-12-23T21:29:11.756Z,7.20
2022-12-23T21:31:44.596Z,4.93
2022-12-23T21:34:17.897Z,6.78
2022-12-23T21:36:52.111Z,4.18
2022-12-23T21:39:24.894Z,4.97
2022-12-23T21:41:57.682Z,4.38
2022-12-23T21:44:30.476Z,4.95
2022-12-23T21:47:03.313Z,4.95
2022-12-23T21:49:36.163Z,3.85
2022-12-23T21:52:10.262Z,2.92
2022-12-23T21:54:43.177Z,2.92
2022-12-23T21:57:15.946Z,3.15
2022-12-23T21:59:48.769Z,4.07
2022-12-23T22:02:22.206Z,3.35
2022-12-23T22:04:54.992Z,4.47
2022-12-23T22:07:29.162Z,4.32
2022-12-23T22:10:01.925Z,3.08
2022-12-23T22:12:34.731Z,3.95
2022-12-23T22:15:11.685Z,3.47
2022-12-23T22:17:44.805Z,4.25
2022-12-23T22:20:17.639Z,4.30
2022-12-23T22:22:51.727Z,4.20
2022-12-23T22:25:24.466Z,4.27
2022-12-23T22:27:57.317Z,4.40
2022-12-23T22:30:30.550Z,4.15
2022-12-23T22:33:03.334Z,4.80
2022-12-23T22:35:36.047Z,5.63
2022-12-23T22:38:10.479Z,5.53
2022-12-23T22:40:43.339Z,6.15
2022-12-23T22:43:16.238Z,3.95
2022-12-23T22:45:56.958Z,4.90
2022-12-23T22:48:31.170Z,2.70
2022-12-23T22:51:04.768Z,3.05
2022-12-23T22:53:38.900Z,4.65
2022-12-23T22:56:13.897Z,4.20
2022-12-23T22:58:46.689Z,5.25
2022-12-23T23:01:22.610Z,5.05
2022-12-23T23:03:59.320Z,5.53
2022-12-23T23:06:33.912Z,4.75
2022-12-23T23:09:09.272Z,4.05
2022-12-23T23:11:43.179Z,3.67
2022-12-23T23:14:16.436Z,4.78
2022-12-23T23:16:49.814Z,3.50
2022-12-23T23:19:22.658Z,5.55
2022-12-23T23:21:55.546Z,4.03
2022-12-23T23:24:31.517Z,5.30
2022-12-23T23:27:04.764Z,4.28
2022-12-23T23:29:37.814Z,4.88
2022-12-23T23:32:11.227Z,5.82
2022-12-23T23:34:44.272Z,5.95
2022-12-23T23:37:17.051Z,5.72
2022-12-23T23:39:51.462Z,5.28
2022-12-23T23:42:24.344Z,6.43
2022-12-23T23:44:57.174Z,4.13
2022-12-23T23:47:34.375Z,5.28
2022-12-23T23:50:08.689Z,6.72
2022-12-23T23:52:41.497Z,6.57
2022-12-23T23:55:15.729Z,5.85
2022-12-23T23:57:48.548Z,4.60
